sensor_id;sensor_type;location;lat;lon;timestamp;P1;durP1;ratioP1;P2;durP2;ratioP2
77726;SDS011;68312;53.502;10.030;2023-03-05T12:05:32;2.97;;;0.82;;
77726;SDS011;68312;53.502;10.030;2023-03-05T12:08:01;2.15;;;1.10;;
77726;SDS011;68312;53.502;10.030;2023-03-05T12:10:29;3.30;;;0.93;;
77726;SDS011;68312;53.502;10.030;2023-03-05T12:13:01;2.85;;;0.68;;
77726;SDS011;68312;53.502;10.030;2023-03-05T12:18:27;1.90;;;0.70;;
77726;SDS011;68312;53.502;10.030;2023-03-05T12:31:58;2.47;;;0.70;;
77726;SDS011;68312;53.502;10.030;2023-03-05T12:37:10;2.47;;;0.55;;
77726;SDS011;68312;53.502;10.030;2023-03-05T12:50:04;2.30;;;0.82;;
77726;SDS011;68312;53.502;10.030;2023-03-05T12:58:02;3.58;;;0.60;;
77726;SDS011;68312;53.502;10.030;2023-03-05T13:03:39;1.92;;;0.70;;
77726;SDS011;68312;53.502;10.030;2023-03-05T13:12:02;1.92;;;0.60;;
77726;SDS011;68312;53.502;10.030;2023-03-05T13:14:44;2.47;;;0.75;;
77726;SDS011;68312;53.502;10.030;2023-03-05T13:17:29;4.45;;;0.55;;
77726;SDS011;68312;53.502;10.030;2023-03-05T13:20:25;2.80;;;0.60;;
77726;SDS011;68312;53.502;10.030;2023-03-05T13:25:58;6.15;;;0.80;;
77726;SDS011;68312;53.502;10.030;2023-03-05T13:28:39;1.75;;;0.38;;
77726;SDS011;68312;53.502;10.030;2023-03-05T13:31:13;1.50;;;0.50;;
77726;SDS011;68312;53.502;10.030;2023-03-05T13:33:49;4.63;;;0.82;;
77726;SDS011;68312;53.502;10.030;2023-03-05T13:37:13;2.70;;;0.63;;
77726;SDS011;68312;53.502;10.030;2023-03-05T13:39:57;4.85;;;0.75;;
77726;SDS011;68312;53.502;10.030;2023-03-05T13:42:32;3.63;;;1.15;;
77726;SDS011;68312;53.502;10.030;2023-03-05T13:45:02;2.88;;;0.80;;
77726;SDS011;68312;53.502;10.030;2023-03-05T13:48:02;4.55;;;1.15;;
77726;SDS011;68312;53.502;10.030;2023-03-05T13:56:03;4.18;;;1.10;;
77726;SDS011;68312;53.502;10.030;2023-03-05T13:58:43;4.22;;;1.52;;
77726;SDS011;68312;53.502;10.030;2023-03-05T14:03:52;2.83;;;0.70;;
77726;SDS011;68312;53.502;10.030;2023-03-05T14:06:45;7.10;;;1.30;;
77726;SDS011;68312;53.502;10.030;2023-03-05T14:12:27;2.10;;;0.70;;
77726;SDS011;68312;53.502;10.030;2023-03-05T14:15:03;3.28;;;0.68;;
77726;SDS011;68312;53.502;10.030;2023-03-05T14:17:50;4.60;;;0.60;;
77726;SDS011;68312;53.502;10.030;2023-03-05T14:20:41;4.22;;;1.10;;
77726;SDS011;68312;53.502;10.030;2023-03-05T14:23:42;1.08;;;0.60;;
77726;SDS011;68312;53.502;10.030;2023-03-05T14:26:21;3.05;;;0.65;;
77726;SDS011;68312;53.502;10.030;2023-03-05T14:31:28;4.10;;;0.80;;
77726;SDS011;68312;53.502;10.030;2023-03-05T14:34:01;5.25;;;0.80;;
77726;SDS011;68312;53.502;10.030;2023-03-05T14:36:31;7.95;;;1.15;;
77726;SDS011;68312;53.502;10.030;2023-03-05T14:38:58;6.10;;;0.77;;
77726;SDS011;68312;53.502;10.030;2023-03-05T14:44:14;3.40;;;1.05;;
77726;SDS011;68312;53.502;10.030;2023-03-05T14:46:46;3.38;;;1.40;;
77726;SDS011;68312;53.502;10.030;2023-03-05T14:49:14;4.60;;;0.90;;
77726;SDS011;68312;53.502;10.030;2023-03-05T14:51:42;5.32;;;0.80;;
77726;SDS011;68312;53.502;10.030;2023-03-05T14:54:17;3.60;;;0.80;;
77726;SDS011;68312;53.502;10.030;2023-03-05T14:56:48;2.20;;;0.60;;
77726;SDS011;68312;53.502;10.030;2023-03-05T14:59:16;1.35;;;0.70;;
77726;SDS011;68312;53.502;10.030;2023-03-05T15:01:45;3.15;;;0.93;;
77726;SDS011;68312;53.502;10.030;2023-03-05T15:04:11;1.52;;;0.63;;
77726;SDS011;68312;53.502;10.030;2023-03-05T15:06:39;1.67;;;0.65;;
77726;SDS011;68312;53.502;10.030;2023-03-05T15:09:09;2.05;;;0.82;;
77726;SDS011;68312;53.502;10.030;2023-03-05T15:11:36;4.22;;;1.30;;
77726;SDS011;68312;53.502;10.030;2023-03-05T15:14:01;3.63;;;1.05;;
77726;SDS011;68312;53.502;10.030;2023-03-05T15:16:27;2.75;;;0.80;;
77726;SDS011;68312;53.502;10.030;2023-03-05T15:18:54;2.20;;;0.80;;
77726;SDS011;68312;53.502;10.030;2023-03-05T15:21:19;2.70;;;0.75;;
77726;SDS011;68312;53.502;10.030;2023-03-05T15:23:45;5.00;;;1.55;;
77726;SDS011;68312;53.502;10.030;2023-03-05T15:26:14;3.30;;;0.68;;
77726;SDS011;68312;53.502;10.030;2023-03-05T15:28:40;3.78;;;1.00;;
77726;SDS011;68312;53.502;10.030;2023-03-05T15:31:06;2.17;;;0.82;;
77726;SDS011;68312;53.502;10.030;2023-03-05T15:33:33;9.02;;;0.95;;
77726;SDS011;68312;53.502;10.030;2023-03-05T15:36:02;3.00;;;0.77;;
77726;SDS011;68312;53.502;10.030;2023-03-05T15:38:28;1.98;;;0.70;;
77726;SDS011;68312;53.502;10.030;2023-03-05T15:40:54;3.22;;;0.98;;
77726;SDS011;68312;53.502;10.030;2023-03-05T15:43:20;2.75;;;0.63;;
77726;SDS011;68312;53.502;10.030;2023-03-05T15:45:45;3.47;;;0.75;;
77726;SDS011;68312;53.502;10.030;2023-03-05T15:48:12;3.25;;;0.70;;
77726;SDS011;68312;53.502;10.030;2023-03-05T15:50:42;2.85;;;0.90;;
77726;SDS011;68312;53.502;10.030;2023-03-05T15:53:08;3.45;;;0.82;;
77726;SDS011;68312;53.502;10.030;2023-03-05T15:55:37;2.90;;;0.57;;
77726;SDS011;68312;53.502;10.030;2023-03-05T15:58:04;2.40;;;0.75;;
77726;SDS011;68312;53.502;10.030;2023-03-05T16:00:32;2.58;;;1.20;;
77726;SDS011;68312;53.502;10.030;2023-03-05T16:03:01;2.97;;;0.93;;
77726;SDS011;68312;53.502;10.030;2023-03-05T16:05:27;5.03;;;0.80;;
77726;SDS011;68312;53.502;10.030;2023-03-05T16:07:56;1.80;;;0.75;;
77726;SDS011;68312;53.502;10.030;2023-03-05T16:10:27;2.90;;;0.60;;
77726;SDS011;68312;53.502;10.030;2023-03-05T16:12:56;1.40;;;0.63;;
77726;SDS011;68312;53.502;10.030;2023-03-05T16:15:33;2.67;;;0.50;;
77726;SDS011;68312;53.502;10.030;2023-03-05T16:18:04;3.65;;;0.95;;
77726;SDS011;68312;53.502;10.030;2023-03-05T16:20:36;1.83;;;0.73;;
77726;SDS011;68312;53.502;10.030;2023-03-05T16:23:03;2.35;;;0.82;;
77726;SDS011;68312;53.502;10.030;2023-03-05T16:25:30;3.78;;;0.98;;
77726;SDS011;68312;53.502;10.030;2023-03-05T16:27:56;6.00;;;1.05;;
77726;SDS011;68312;53.502;10.030;2023-03-05T16:30:21;1.67;;;1.08;;
77726;SDS011;68312;53.502;10.030;2023-03-05T16:32:47;4.85;;;0.77;;
77726;SDS011;68312;53.502;10.030;2023-03-05T16:35:13;2.72;;;0.50;;
77726;SDS011;68312;53.502;10.030;2023-03-05T16:37:40;2.83;;;0.60;;
77726;SDS011;68312;53.502;10.030;2023-03-05T16:40:07;5.53;;;0.70;;
77726;SDS011;68312;53.502;10.030;2023-03-05T16:42:35;0.95;;;0.50;;
77726;SDS011;68312;53.502;10.030;2023-03-05T16:45:01;1.58;;;0.70;;
77726;SDS011;68312;53.502;10.030;2023-03-05T16:47:32;2.70;;;0.70;;
77726;SDS011;68312;53.502;10.030;2023-03-05T16:49:57;1.83;;;0.63;;
77726;SDS011;68312;53.502;10.030;2023-03-05T16:52:25;2.65;;;0.70;;
77726;SDS011;68312;53.502;10.030;2023-03-05T16:54:50;2.15;;;0.75;;
77726;SDS011;68312;53.502;10.030;2023-03-05T16:57:19;1.08;;;0.57;;
77726;SDS011;68312;53.502;10.030;2023-03-05T16:59:47;3.17;;;1.25;;
77726;SDS011;68312;53.502;10.030;2023-03-05T17:02:13;4.07;;;1.33;;
77726;SDS011;68312;53.502;10.030;2023-03-05T17:04:40;4.90;;;2.00;;
77726;SDS011;68312;53.502;10.030;2023-03-05T17:07:06;1.92;;;1.33;;
77726;SDS011;68312;53.502;10.030;2023-03-05T17:09:32;2.22;;;1.02;;
77726;SDS011;68312;53.502;10.030;2023-03-05T17:11:59;6.03;;;0.80;;
77726;SDS011;68312;53.502;10.030;2023-03-05T17:14:24;4.13;;;1.65;;
77726;SDS011;68312;53.502;10.030;2023-03-05T17:16:50;2.90;;;1.30;;
77726;SDS011;68312;53.502;10.030;2023-03-05T17:19:16;1.75;;;0.90;;
77726;SDS011;68312;53.502;10.030;2023-03-05T17:21:43;3.65;;;1.30;;
77726;SDS011;68312;53.502;10.030;2023-03-05T17:24:09;3.88;;;0.85;;
77726;SDS011;68312;53.502;10.030;2023-03-05T17:26:36;3.03;;;1.25;;
77726;SDS011;68312;53.502;10.030;2023-03-05T17:29:05;3.60;;;1.15;;
77726;SDS011;68312;53.502;10.030;2023-03-05T17:31:31;5.38;;;0.98;;
77726;SDS011;68312;53.502;10.030;2023-03-05T17:33:57;2.90;;;0.80;;
77726;SDS011;68312;53.502;10.030;2023-03-05T17:36:23;4.43;;;3.63;;
77726;SDS011;68312;53.502;10.030;2023-03-05T17:38:50;6.70;;;2.97;;
77726;SDS011;68312;53.502;10.030;2023-03-05T17:41:17;6.38;;;2.30;;
77726;SDS011;68312;53.502;10.030;2023-03-05T17:43:43;7.82;;;1.95;;
77726;SDS011;68312;53.502;10.030;2023-03-05T17:46:10;3.92;;;1.80;;
77726;SDS011;68312;53.502;10.030;2023-03-05T17:48:37;9.63;;;3.65;;
77726;SDS011;68312;53.502;10.030;2023-03-05T17:51:07;3.35;;;1.20;;
77726;SDS011;68312;53.502;10.030;2023-03-05T17:53:38;3.88;;;1.75;;
77726;SDS011;68312;53.502;10.030;2023-03-05T17:56:05;4.43;;;1.60;;
77726;SDS011;68312;53.502;10.030;2023-03-05T17:58:37;6.60;;;2.30;;
77726;SDS011;68312;53.502;10.030;2023-03-05T18:01:03;8.50;;;2.08;;
77726;SDS011;68312;53.502;10.030;2023-03-05T18:03:30;5.20;;;2.10;;
77726;SDS011;68312;53.502;10.030;2023-03-05T18:05:56;17.00;;;8.65;;
77726;SDS011;68312;53.502;10.030;2023-03-05T18:08:22;6.97;;;4.40;;
77726;SDS011;68312;53.502;10.030;2023-03-05T18:10:48;8.48;;;3.83;;
77726;SDS011;68312;53.502;10.030;2023-03-05T18:13:13;6.63;;;4.30;;
77726;SDS011;68312;53.502;10.030;2023-03-05T18:15:39;4.70;;;1.60;;
77726;SDS011;68312;53.502;10.030;2023-03-05T18:18:11;4.35;;;1.48;;
77726;SDS011;68312;53.502;10.030;2023-03-05T18:20:41;3.13;;;1.48;;
77726;SDS011;68312;53.502;10.030;2023-03-05T18:23:09;4.15;;;1.52;;
77726;SDS011;68312;53.502;10.030;2023-03-05T18:25:35;6.22;;;2.85;;
77726;SDS011;68312;53.502;10.030;2023-03-05T18:28:05;3.05;;;1.48;;
77726;SDS011;68312;53.502;10.030;2023-03-05T18:30:36;4.10;;;1.90;;
77726;SDS011;68312;53.502;10.030;2023-03-05T18:33:08;7.55;;;1.60;;
77726;SDS011;68312;53.502;10.030;2023-03-05T18:35:47;5.38;;;2.75;;
77726;SDS011;68312;53.502;10.030;2023-03-05T18:38:17;3.70;;;2.03;;
77726;SDS011;68312;53.502;10.030;2023-03-05T18:40:45;4.18;;;1.60;;
77726;SDS011;68312;53.502;10.030;2023-03-05T18:43:13;5.25;;;2.22;;
77726;SDS011;68312;53.502;10.030;2023-03-05T18:45:41;3.65;;;1.88;;
77726;SDS011;68312;53.502;10.030;2023-03-05T18:48:06;5.68;;;1.90;;
77726;SDS011;68312;53.502;10.030;2023-03-05T18:50:32;3.78;;;1.80;;
77726;SDS011;68312;53.502;10.030;2023-03-05T18:52:57;5.22;;;2.10;;
77726;SDS011;68312;53.502;10.030;2023-03-05T18:55:24;6.18;;;2.63;;
77726;SDS011;68312;53.502;10.030;2023-03-05T18:57:53;5.53;;;2.13;;
77726;SDS011;68312;53.502;10.030;2023-03-05T19:00:21;7.88;;;3.55;;
77726;SDS011;68312;53.502;10.030;2023-03-05T19:02:51;7.53;;;3.40;;
77726;SDS011;68312;53.502;10.030;2023-03-05T19:05:18;6.22;;;2.80;;
77726;SDS011;68312;53.502;10.030;2023-03-05T19:07:45;3.88;;;2.40;;
77726;SDS011;68312;53.502;10.030;2023-03-05T19:10:12;5.90;;;2.65;;
77726;SDS011;68312;53.502;10.030;2023-03-05T19:12:41;5.50;;;2.50;;
77726;SDS011;68312;53.502;10.030;2023-03-05T19:15:29;3.75;;;2.30;;
77726;SDS011;68312;53.502;10.030;2023-03-05T19:17:56;5.80;;;2.58;;
77726;SDS011;68312;53.502;10.030;2023-03-05T19:20:22;4.38;;;2.15;;
77726;SDS011;68312;53.502;10.030;2023-03-05T19:22:48;7.60;;;2.85;;
77726;SDS011;68312;53.502;10.030;2023-03-05T19:25:14;6.90;;;2.88;;
77726;SDS011;68312;53.502;10.030;2023-03-05T19:27:41;4.28;;;2.53;;
77726;SDS011;68312;53.502;10.030;2023-03-05T19:30:12;6.07;;;2.35;;
77726;SDS011;68312;53.502;10.030;2023-03-05T19:32:40;6.63;;;2.63;;
77726;SDS011;68312;53.502;10.030;2023-03-05T19:35:06;6.20;;;3.08;;
77726;SDS011;68312;53.502;10.030;2023-03-05T19:37:33;5.88;;;3.60;;
77726;SDS011;68312;53.502;10.030;2023-03-05T19:39:58;7.97;;;2.90;;
77726;SDS011;68312;53.502;10.030;2023-03-05T19:42:24;5.35;;;3.40;;
77726;SDS011;68312;53.502;10.030;2023-03-05T19:44:49;6.00;;;3.00;;
77726;SDS011;68312;53.502;10.030;2023-03-05T19:47:15;5.18;;;2.97;;
77726;SDS011;68312;53.502;10.030;2023-03-05T19:49:41;8.27;;;3.22;;
77726;SDS011;68312;53.502;10.030;2023-03-05T19:52:06;7.03;;;2.75;;
77726;SDS011;68312;53.502;10.030;2023-03-05T19:54:32;10.80;;;4.45;;
77726;SDS011;68312;53.502;10.030;2023-03-05T19:56:58;6.18;;;3.53;;
77726;SDS011;68312;53.502;10.030;2023-03-05T19:59:24;4.70;;;3.00;;
77726;SDS011;68312;53.502;10.030;2023-03-05T20:01:50;9.25;;;3.50;;
77726;SDS011;68312;53.502;10.030;2023-03-05T20:04:18;6.13;;;3.72;;
77726;SDS011;68312;53.502;10.030;2023-03-05T20:06:47;8.45;;;4.25;;
77726;SDS011;68312;53.502;10.030;2023-03-05T20:09:13;6.95;;;4.75;;
77726;SDS011;68312;53.502;10.030;2023-03-05T20:11:40;9.25;;;4.88;;
77726;SDS011;68312;53.502;10.030;2023-03-05T20:14:09;12.05;;;4.82;;
77726;SDS011;68312;53.502;10.030;2023-03-05T20:16:38;8.50;;;4.93;;
77726;SDS011;68312;53.502;10.030;2023-03-05T20:19:07;6.43;;;4.03;;
77726;SDS011;68312;53.502;10.030;2023-03-05T20:21:40;8.15;;;5.07;;
77726;SDS011;68312;53.502;10.030;2023-03-05T20:24:07;7.05;;;4.32;;
77726;SDS011;68312;53.502;10.030;2023-03-05T20:26:41;9.50;;;4.38;;
77726;SDS011;68312;53.502;10.030;2023-03-05T20:29:10;7.22;;;4.57;;
77726;SDS011;68312;53.502;10.030;2023-03-05T20:31:37;7.72;;;4.03;;
77726;SDS011;68312;53.502;10.030;2023-03-05T20:34:08;10.18;;;5.05;;
77726;SDS011;68312;53.502;10.030;2023-03-05T20:36:38;10.80;;;5.20;;
77726;SDS011;68312;53.502;10.030;2023-03-05T20:39:05;10.38;;;5.13;;
77726;SDS011;68312;53.502;10.030;2023-03-05T20:41:32;8.93;;;4.85;;
77726;SDS011;68312;53.502;10.030;2023-03-05T20:44:02;10.32;;;5.07;;
77726;SDS011;68312;53.502;10.030;2023-03-05T20:46:30;8.32;;;3.85;;
77726;SDS011;68312;53.502;10.030;2023-03-05T20:49:05;9.50;;;3.97;;
77726;SDS011;68312;53.502;10.030;2023-03-05T20:51:32;6.93;;;2.97;;
77726;SDS011;68312;53.502;10.030;2023-03-05T20:54:03;9.05;;;3.78;;
77726;SDS011;68312;53.502;10.030;2023-03-05T20:59:02;9.13;;;4.43;;
77726;SDS011;68312;53.502;10.030;2023-03-05T21:01:33;10.45;;;3.92;;
77726;SDS011;68312;53.502;10.030;2023-03-05T21:04:02;6.50;;;3.58;;
77726;SDS011;68312;53.502;10.030;2023-03-05T21:06:29;7.75;;;4.20;;
77726;SDS011;68312;53.502;10.030;2023-03-05T21:08:57;7.70;;;3.40;;
77726;SDS011;68312;53.502;10.030;2023-03-05T21:11:23;4.38;;;2.83;;
77726;SDS011;68312;53.502;10.030;2023-03-05T21:13:49;7.30;;;3.25;;
77726;SDS011;68312;53.502;10.030;2023-03-05T21:16:16;6.70;;;3.38;;
77726;SDS011;68312;53.502;10.030;2023-03-05T21:18:48;6.28;;;3.22;;
77726;SDS011;68312;53.502;10.030;2023-03-05T21:21:15;4.22;;;2.10;;
77726;SDS011;68312;53.502;10.030;2023-03-05T21:23:41;6.20;;;3.63;;
77726;SDS011;68312;53.502;10.030;2023-03-05T21:26:07;5.25;;;3.28;;
77726;SDS011;68312;53.502;10.030;2023-03-05T21:28:33;5.75;;;3.20;;
77726;SDS011;68312;53.502;10.030;2023-03-05T21:31:05;7.88;;;3.88;;
77726;SDS011;68312;53.502;10.030;2023-03-05T21:33:40;4.85;;;2.80;;
77726;SDS011;68312;53.502;10.030;2023-03-05T21:36:06;6.68;;;3.40;;
77726;SDS011;68312;53.502;10.030;2023-03-05T21:38:32;7.20;;;3.05;;
77726;SDS011;68312;53.502;10.030;2023-03-05T21:40:59;4.38;;;2.30;;
77726;SDS011;68312;53.502;10.030;2023-03-05T21:43:27;5.38;;;2.83;;
77726;SDS011;68312;53.502;10.030;2023-03-05T21:45:55;7.55;;;4.00;;
77726;SDS011;68312;53.502;10.030;2023-03-05T21:48:22;5.55;;;3.13;;
77726;SDS011;68312;53.502;10.030;2023-03-05T21:50:49;5.50;;;2.50;;
77726;SDS011;68312;53.502;10.030;2023-03-05T21:53:16;5.32;;;2.55;;
77726;SDS011;68312;53.502;10.030;2023-03-05T21:55:46;8.98;;;4.07;;
77726;SDS011;68312;53.502;10.030;2023-03-05T21:58:30;5.57;;;2.85;;
77726;SDS011;68312;53.502;10.030;2023-03-05T22:01:01;8.82;;;4.20;;
77726;SDS011;68312;53.502;10.030;2023-03-05T22:03:27;10.32;;;5.03;;
77726;SDS011;68312;53.502;10.030;2023-03-05T22:05:54;9.55;;;4.90;;
77726;SDS011;68312;53.502;10.030;2023-03-05T22:08:21;10.18;;;5.20;;
77726;SDS011;68312;53.502;10.030;2023-03-05T22:10:48;9.20;;;5.38;;
77726;SDS011;68312;53.502;10.030;2023-03-05T22:13:14;10.15;;;5.82;;
77726;SDS011;68312;53.502;10.030;2023-03-05T22:15:43;14.75;;;6.72;;
77726;SDS011;68312;53.502;10.030;2023-03-05T22:18:19;12.82;;;5.72;;
77726;SDS011;68312;53.502;10.030;2023-03-05T22:20:53;12.23;;;5.95;;
77726;SDS011;68312;53.502;10.030;2023-03-05T22:23:21;9.60;;;5.47;;
77726;SDS011;68312;53.502;10.030;2023-03-05T22:25:56;15.35;;;6.32;;
77726;SDS011;68312;53.502;10.030;2023-03-05T22:28:26;10.57;;;5.63;;
77726;SDS011;68312;53.502;10.030;2023-03-05T22:30:53;14.30;;;6.00;;
77726;SDS011;68312;53.502;10.030;2023-03-05T22:33:20;13.65;;;5.88;;
77726;SDS011;68312;53.502;10.030;2023-03-05T22:35:46;14.52;;;6.53;;
77726;SDS011;68312;53.502;10.030;2023-03-05T22:38:12;14.63;;;7.35;;
77726;SDS011;68312;53.502;10.030;2023-03-05T22:40:41;14.82;;;7.53;;
77726;SDS011;68312;53.502;10.030;2023-03-05T22:43:10;13.82;;;7.00;;
77726;SDS011;68312;53.502;10.030;2023-03-05T22:45:38;12.85;;;7.22;;
77726;SDS011;68312;53.502;10.030;2023-03-05T22:48:04;16.60;;;7.65;;
77726;SDS011;68312;53.502;10.030;2023-03-05T22:50:33;14.95;;;6.38;;
77726;SDS011;68312;53.502;10.030;2023-03-05T22:53:01;16.30;;;6.63;;
77726;SDS011;68312;53.502;10.030;2023-03-05T22:55:30;14.88;;;6.40;;
77726;SDS011;68312;53.502;10.030;2023-03-05T22:57:55;8.00;;;4.40;;
77726;SDS011;68312;53.502;10.030;2023-03-05T23:00:22;10.68;;;5.10;;
77726;SDS011;68312;53.502;10.030;2023-03-05T23:02:49;14.68;;;6.47;;
77726;SDS011;68312;53.502;10.030;2023-03-05T23:05:15;14.68;;;7.43;;
77726;SDS011;68312;53.502;10.030;2023-03-05T23:07:42;11.50;;;5.85;;
77726;SDS011;68312;53.502;10.030;2023-03-05T23:10:14;16.77;;;7.00;;
77726;SDS011;68312;53.502;10.030;2023-03-05T23:12:47;13.35;;;5.30;;
77726;SDS011;68312;53.502;10.030;2023-03-05T23:15:27;16.63;;;7.35;;
77726;SDS011;68312;53.502;10.030;2023-03-05T23:17:57;17.90;;;6.95;;
77726;SDS011;68312;53.502;10.030;2023-03-05T23:20:25;15.23;;;5.53;;
77726;SDS011;68312;53.502;10.030;2023-03-05T23:22:55;14.10;;;6.50;;
77726;SDS011;68312;53.502;10.030;2023-03-05T23:25:22;14.55;;;6.07;;
77726;SDS011;68312;53.502;10.030;2023-03-05T23:27:53;16.15;;;6.70;;
77726;SDS011;68312;53.502;10.030;2023-03-05T23:30:22;19.15;;;7.20;;
77726;SDS011;68312;53.502;10.030;2023-03-05T23:35:52;22.42;;;8.13;;
77726;SDS011;68312;53.502;10.030;2023-03-05T23:38:26;16.13;;;6.40;;
77726;SDS011;68312;53.502;10.030;2023-03-05T23:40:54;19.77;;;8.02;;
77726;SDS011;68312;53.502;10.030;2023-03-05T23:43:24;16.38;;;7.57;;
77726;SDS011;68312;53.502;10.030;2023-03-05T23:45:50;20.48;;;8.43;;
77726;SDS011;68312;53.502;10.030;2023-03-05T23:48:19;14.75;;;7.00;;
77726;SDS011;68312;53.502;10.030;2023-03-05T23:50:47;17.15;;;7.40;;
77726;SDS011;68312;53.502;10.030;2023-03-05T23:53:16;14.68;;;6.90;;
77726;SDS011;68312;53.502;10.030;2023-03-05T23:55:52;10.10;;;4.68;;
77726;SDS011;68312;53.502;10.030;2023-03-05T23:58:19;12.25;;;5.50;;
